Alyeska Resort
Hourly Weather - Base Weather Site
ALY_BASE_HR 5/24/2017
CLICK TO VIEW GRAPH!!

        DATE  TIME   Air  BATT   H2o   H2o   Rel
                    Temp  Volt  Inch Since  Hum%
                      F   AVG   1HR  0600   AVG

   5/24/2017 18:00    44 13.80  0.01  0.23    88
   5/24/2017 17:00    44 13.80  0.01  0.22    87
   5/24/2017 16:00    44 13.80  0.02  0.21    91
   5/24/2017 15:00    44 13.80  0.03  0.19    90
   5/24/2017 14:00    44 13.80  0.01  0.16    89
   5/24/2017 13:00    44 13.81  0.02  0.15    90
   5/24/2017 12:00    44 13.81  0.02  0.13    89
   5/24/2017 11:00    44 13.81  0.02  0.11    91
   5/24/2017 10:00    44 13.81  0.03  0.09    91
   5/24/2017 09:00    44 13.81  0.02  0.06    91
   5/24/2017 08:00    43 13.82  0.02  0.04    93
   5/24/2017 07:00    43 13.82  0.02  0.02    93
   5/24/2017 06:00    43 13.81  0.02  0.04    90
   5/24/2017 05:00    44 13.78  0.02  0.02    87
   5/24/2017 04:00    46 13.75  0.00  0.00    76
   5/24/2017 03:00    49 13.71  0.00  0.00    62
   5/24/2017 02:00    46 13.09  0.00  0.00    70
   5/24/2017 01:00    46 12.48  0.00  0.00    72
   5/23/2017 24:00    46 13.32  0.00  0.00    70
   5/23/2017 23:00    47 13.70  0.00  0.00    65
   5/23/2017 22:00    51 13.63  0.00  0.00    56
   5/23/2017 21:00    53 13.57  0.00  0.00    50
   5/23/2017 20:00    56 13.55  0.00  0.00    40
   5/23/2017 19:00    56 13.54  0.00  0.00    41


CLICK TO VIEW GRAPH!!